Time;durP1;ratioP1;P1;durP2;ratioP2;P2;SDS_P1;SDS_P2;PMS_P1;PMS_P2;Temp;Humidity;BMP_temperature;BMP_pressure;BME280_temperature;BME280_humidity;BME280_pressure;Samples;Min_cycle;Max_cycle;Signal;HPM_P1;HPM_P2
2022/04/19 00:00:13;;;;;;;5.43;4.05;;;;;;;10.60;51.14;98742.97;5007504;28;20052;-83
2022/04/19 00:02:38;;;;;;;5.57;3.58;;;;;;;10.56;51.02;98745.38;5021385;28;21143;-83
2022/04/19 00:05:04;;;;;;;4.80;4.10;;;;;;;10.48;50.58;98746.59;4987965;28;20041;-83
2022/04/19 00:07:29;;;;;;;4.05;3.65;;;;;;;10.42;51.03;98746.78;5018184;28;20049;-83
2022/04/19 00:09:55;;;;;;;5.93;3.80;;;;;;;10.41;51.40;98740.66;5020459;28;20657;-83
2022/04/19 00:12:20;;;;;;;4.88;3.67;;;;;;;10.39;51.40;98736.63;5036981;28;20492;-83
2022/04/19 00:14:47;;;;;;;4.43;3.60;;;;;;;10.32;51.16;98728.00;5021346;28;20041;-83
2022/04/19 00:17:13;;;;;;;5.40;4.20;;;;;;;10.44;51.03;98731.38;5011763;28;20126;-83
2022/04/19 00:19:38;;;;;;;4.63;3.47;;;;;;;10.26;51.12;98729.81;5019551;28;20076;-82
2022/04/19 00:22:03;;;;;;;5.18;3.95;;;;;;;10.37;51.11;98736.09;5011852;28;20056;-82
2022/04/19 00:24:29;;;;;;;5.20;4.07;;;;;;;10.37;51.44;98730.75;5011835;28;20041;-85
2022/04/19 00:26:55;;;;;;;7.15;3.80;;;;;;;10.26;51.98;98732.50;5018704;28;20037;-85
2022/04/19 00:29:20;;;;;;;4.82;3.38;;;;;;;10.25;51.83;98730.88;5029420;28;20030;-85
2022/04/19 00:31:46;;;;;;;4.68;3.10;;;;;;;10.37;51.03;98734.22;5008935;28;20030;-85
2022/04/19 00:34:11;;;;;;;5.30;3.53;;;;;;;10.27;51.44;98720.75;4997137;28;20081;-85
2022/04/19 00:36:37;;;;;;;4.10;3.40;;;;;;;10.28;51.40;98730.38;4999452;28;20702;-85
2022/04/19 00:39:03;;;;;;;7.68;4.13;;;;;;;10.18;51.50;98724.09;5019914;28;20117;-85
2022/04/19 00:41:29;;;;;;;4.85;3.97;;;;;;;10.12;51.86;98728.56;4994403;28;20588;-85
2022/04/19 00:43:54;;;;;;;3.80;3.05;;;;;;;10.01;51.33;98708.13;5009850;28;20470;-84
2022/04/19 00:46:20;;;;;;;5.88;3.88;;;;;;;10.13;51.08;98727.53;5019646;28;20508;-84
2022/04/19 00:48:45;;;;;;;6.50;4.53;;;;;;;10.10;52.14;98719.19;5021176;28;21154;-85
2022/04/19 00:51:12;;;;;;;4.53;3.72;;;;;;;10.22;51.45;98727.91;4994022;28;20029;-85
2022/04/19 00:53:37;;;;;;;4.20;3.58;;;;;;;10.15;52.24;98735.28;5026485;28;20459;-85
2022/04/19 00:56:03;;;;;;;4.32;3.17;;;;;;;10.09;52.08;98722.91;5008813;28;20129;-85
2022/04/19 00:58:28;;;;;;;5.28;4.10;;;;;;;10.05;51.45;98729.78;5009077;28;20498;-85
2022/04/19 01:00:54;;;;;;;4.45;3.33;;;;;;;9.97;52.12;98716.88;5012495;28;20054;-86
2022/04/19 01:03:22;;;;;;;3.95;3.33;;;;;;;9.99;52.32;98720.91;5007118;28;20029;-85
2022/04/19 01:05:48;;;;;;;7.38;3.60;;;;;;;10.07;51.19;98723.13;5037665;28;20030;-85
2022/04/19 01:08:14;;;;;;;5.75;3.97;;;;;;;9.97;51.53;98720.34;5023519;28;20187;-85
2022/04/19 01:10:42;;;;;;;5.40;4.43;;;;;;;9.88;52.18;98713.03;5022986;28;20141;-85
2022/04/19 01:13:17;;;;;;;7.10;4.55;;;;;;;9.95;52.63;98709.13;5021596;28;20046;-84
2022/04/19 01:15:47;;;;;;;5.35;4.30;;;;;;;9.94;51.89;98715.50;4998060;28;21014;-85
2022/04/19 01:18:14;;;;;;;4.65;3.60;;;;;;;9.87;52.24;98717.56;5024786;28;20029;-84
2022/04/19 01:20:41;;;;;;;5.03;4.25;;;;;;;9.91;52.09;98713.34;5023026;28;20076;-83
2022/04/19 01:23:07;;;;;;;4.72;4.13;;;;;;;9.75;52.61;98709.69;5030032;28;20030;-82
2022/04/19 01:25:33;;;;;;;5.28;4.35;;;;;;;9.79;52.58;98709.97;5006685;28;20551;-83
2022/04/19 01:27:58;;;;;;;7.07;4.63;;;;;;;9.73;52.53;98709.13;5022173;28;20084;-83
2022/04/19 01:30:24;;;;;;;5.07;3.70;;;;;;;9.74;52.19;98712.59;5012265;28;20536;-83
2022/04/19 01:32:49;;;;;;;7.75;4.30;;;;;;;9.73;52.73;98710.97;5023523;28;20473;-83
2022/04/19 01:35:17;;;;;;;6.38;4.20;;;;;;;9.77;52.67;98706.75;5010005;28;20033;-82
2022/04/19 01:37:45;;;;;;;5.15;4.65;;;;;;;9.62;52.16;98704.69;5023147;28;20548;-82
2022/04/19 01:40:16;;;;;;;6.97;4.43;;;;;;;9.56;52.71;98700.34;5010867;28;20029;-83
2022/04/19 01:42:45;;;;;;;5.93;4.50;;;;;;;9.62;53.12;98703.88;5020891;28;20030;-82
2022/04/19 01:45:15;;;;;;;6.00;4.60;;;;;;;9.57;52.59;98699.28;5029153;28;20041;-83
2022/04/19 01:47:40;;;;;;;5.32;4.18;;;;;;;9.51;53.02;98694.13;5019557;28;20127;-83
2022/04/19 01:50:10;;;;;;;7.45;4.50;;;;;;;9.50;53.14;98697.88;5024373;28;20465;-83
2022/04/19 01:52:37;;;;;;;6.07;4.88;;;;;;;9.56;52.46;98697.69;5013630;28;20032;-83
2022/04/19 01:55:04;;;;;;;8.05;4.70;;;;;;;9.46;52.96;98694.88;5027998;28;20026;-83
2022/04/19 01:57:30;;;;;;;5.85;4.70;;;;;;;9.48;52.75;98705.31;5022999;28;20040;-83
2022/04/19 01:59:55;;;;;;;8.30;5.05;;;;;;;9.51;52.70;98702.94;5029158;28;20029;-83
2022/04/19 02:02:21;;;;;;;5.95;4.35;;;;;;;9.50;53.01;98701.31;5010166;28;20025;-83
2022/04/19 02:04:46;;;;;;;8.95;4.75;;;;;;;9.44;53.02;98702.31;5011503;28;20033;-83
2022/04/19 02:07:11;;;;;;;5.32;4.32;;;;;;;9.39;53.03;98704.09;4996023;28;20064;-83
2022/04/19 02:09:36;;;;;;;7.07;4.60;;;;;;;9.45;53.12;98703.13;4994333;28;20018;-83
2022/04/19 02:12:05;;;;;;;5.40;4.40;;;;;;;9.41;52.55;98707.31;5005031;28;20497;-83
2022/04/19 02:14:30;;;;;;;5.95;4.80;;;;;;;9.40;52.84;98711.03;4995470;28;20038;-83
2022/04/19 02:16:56;;;;;;;6.10;4.65;;;;;;;9.32;53.16;98709.59;5009856;28;20275;-83
2022/04/19 02:19:21;;;;;;;5.30;4.30;;;;;;;9.40;52.95;98708.34;5010920;28;20090;-83
2022/04/19 02:21:47;;;;;;;5.10;4.10;;;;;;;9.25;53.29;98703.63;5029443;28;20112;-83
2022/04/19 02:24:12;;;;;;;7.30;5.18;;;;;;;9.28;53.23;98702.34;4999818;28;20392;-83
2022/04/19 02:26:37;;;;;;;7.90;4.93;;;;;;;9.21;53.63;98705.16;5027457;28;20038;-83
2022/04/19 02:29:03;;;;;;;8.50;5.35;;;;;;;9.18;53.37;98708.28;5009079;28;20374;-83
2022/04/19 02:31:29;;;;;;;7.22;4.68;;;;;;;9.14;52.53;98696.53;5033117;28;20033;-83
2022/04/19 02:33:58;;;;;;;6.82;5.03;;;;;;;9.09;53.23;98683.13;5027857;28;20145;-83
2022/04/19 02:36:24;;;;;;;6.25;4.82;;;;;;;9.19;53.13;98701.13;5022427;28;20033;-82
2022/04/19 02:38:49;;;;;;;5.38;4.85;;;;;;;9.22;52.66;98701.44;5029276;28;20088;-83
2022/04/19 02:41:14;;;;;;;6.47;4.45;;;;;;;9.11;52.99;98704.97;5007713;28;20079;-82
2022/04/19 02:43:40;;;;;;;6.70;4.78;;;;;;;9.12;53.42;98703.94;5006042;28;20026;-82
2022/04/19 02:46:05;;;;;;;5.82;4.50;;;;;;;9.06;53.92;98699.59;5013953;28;20037;-82
2022/04/19 02:48:30;;;;;;;5.97;4.57;;;;;;;9.05;53.21;98693.47;4996477;28;20029;-82
2022/04/19 02:50:56;;;;;;;5.47;4.30;;;;;;;8.99;53.68;98688.28;5024544;28;20029;-82
2022/04/19 02:53:21;;;;;;;10.80;5.22;;;;;;;9.00;53.98;98690.72;5037167;28;20021;-82
2022/04/19 02:55:48;;;;;;;6.15;4.78;;;;;;;9.03;53.54;98695.56;5024437;28;20029;-82
2022/04/19 02:58:13;;;;;;;6.07;4.47;;;;;;;8.99;53.50;98690.97;4993626;28;20424;-82
2022/04/19 03:00:39;;;;;;;7.38;4.88;;;;;;;8.97;53.89;98688.53;5009714;28;20048;-83
2022/04/19 03:03:05;;;;;;;8.02;4.82;;;;;;;8.89;53.46;98682.78;4996482;28;20055;-82
2022/04/19 03:05:30;;;;;;;6.10;4.40;;;;;;;8.82;52.97;98656.34;5033967;28;20393;-82
2022/04/19 03:07:56;;;;;;;6.82;4.38;;;;;;;8.88;53.60;98675.88;5012482;28;20022;-82
2022/04/19 03:10:21;;;;;;;6.63;4.97;;;;;;;8.86;53.73;98668.13;5009675;28;20028;-82
2022/04/19 03:12:47;;;;;;;6.05;4.55;;;;;;;8.88;53.94;98676.69;5039507;28;20091;-82
2022/04/19 03:15:12;;;;;;;8.18;6.03;;;;;;;8.82;54.17;98666.97;5026375;28;20029;-82
2022/04/19 03:17:40;;;;;;;5.88;4.47;;;;;;;8.81;53.44;98670.69;5031470;28;20025;-82
2022/04/19 03:20:09;;;;;;;5.63;4.50;;;;;;;8.78;53.88;98670.41;5023400;28;20110;-82
2022/04/19 03:28:04;;;;;;;6.38;4.78;;;;;;;8.75;53.69;98679.66;5025027;28;20491;-82
2022/04/19 03:30:29;;;;;;;6.82;4.35;;;;;;;8.71;53.50;98678.53;5010179;28;20038;-82
2022/04/19 03:32:55;;;;;;;6.90;5.28;;;;;;;8.76;54.07;98673.28;5027157;28;20512;-82
2022/04/19 03:35:20;;;;;;;6.35;4.47;;;;;;;8.70;53.28;98679.56;5008432;28;20030;-82
2022/04/19 03:37:46;;;;;;;7.55;4.72;;;;;;;8.74;53.61;98672.72;5006643;28;20501;-82
2022/04/19 03:40:11;;;;;;;7.07;4.43;;;;;;;8.67;54.43;98680.03;5009523;28;20481;-82
2022/04/19 03:42:40;;;;;;;6.53;4.75;;;;;;;8.63;54.41;98678.09;5018611;28;20034;-82
2022/04/19 03:45:06;;;;;;;6.47;4.57;;;;;;;8.70;54.09;98689.38;5025849;28;20477;-82
2022/04/19 03:47:34;;;;;;;6.25;4.35;;;;;;;8.56;54.22;98683.56;4987248;28;20091;-82
2022/04/19 03:50:00;;;;;;;5.35;4.20;;;;;;;8.59;53.93;98683.09;4990672;28;20026;-82
2022/04/19 03:52:26;;;;;;;6.63;4.00;;;;;;;8.57;54.09;98669.22;5018904;28;20036;-82
2022/04/19 03:54:51;;;;;;;5.05;4.35;;;;;;;8.58;54.22;98681.50;5028816;28;20050;-82
2022/04/19 03:57:18;;;;;;;6.53;4.53;;;;;;;8.53;53.71;98677.91;5020719;28;20512;-82
2022/04/19 03:59:44;;;;;;;6.53;4.57;;;;;;;8.54;53.86;98676.88;5020008;28;20052;-82
2022/04/19 04:02:10;;;;;;;5.85;4.20;;;;;;;8.46;54.16;98678.06;5008886;28;20396;-82
2022/04/19 04:04:36;;;;;;;8.38;5.25;;;;;;;8.51;53.89;98680.03;5006299;28;20021;-82
2022/04/19 04:07:03;;;;;;;6.22;4.80;;;;;;;8.47;54.33;98677.03;5014481;28;20184;-82
2022/04/19 04:09:37;;;;;;;6.35;4.97;;;;;;;8.44;54.47;98669.53;4990486;28;20430;-82
2022/04/19 04:12:11;;;;;;;5.95;4.45;;;;;;;8.51;54.15;98683.50;5020034;28;20029;-82
2022/04/19 04:14:37;;;;;;;5.85;4.32;;;;;;;8.45;54.18;98683.63;5005468;28;20037;-85
2022/04/19 04:17:03;;;;;;;5.20;3.97;;;;;;;8.45;54.63;98673.81;5003464;28;20084;-85
2022/04/19 04:19:28;;;;;;;8.75;5.20;;;;;;;8.37;54.50;98679.50;5018266;28;20516;-85
2022/04/19 04:21:54;;;;;;;7.35;4.60;;;;;;;8.40;54.47;98684.34;5007451;28;20033;-85
2022/04/19 04:24:19;;;;;;;5.70;4.95;;;;;;;8.35;54.42;98678.94;5020996;28;20039;-85
2022/04/19 04:26:45;;;;;;;5.72;4.47;;;;;;;8.39;54.13;98681.94;5024528;28;20033;-85
2022/04/19 04:29:10;;;;;;;5.15;4.65;;;;;;;8.35;54.41;98676.28;5004741;28;20025;-85
2022/04/19 04:31:36;;;;;;;5.05;4.43;;;;;;;8.46;54.65;98691.38;5019908;28;20084;-85
2022/04/19 04:34:02;;;;;;;8.20;4.97;;;;;;;8.41;54.42;98691.25;5009618;28;20034;-86
2022/04/19 04:36:27;;;;;;;6.43;4.78;;;;;;;8.34;54.41;98687.97;5039685;28;20426;-86
2022/04/19 04:38:52;;;;;;;5.78;4.70;;;;;;;8.26;54.69;98688.31;5021885;28;20065;-86
2022/04/19 04:41:18;;;;;;;8.65;5.15;;;;;;;8.30;54.82;98686.81;5017205;28;20030;-83
2022/04/19 04:43:43;;;;;;;7.57;4.88;;;;;;;8.28;55.26;98687.06;5008039;28;20033;-82
2022/04/19 04:51:37;;;;;;;6.50;4.80;;;;;;;8.25;54.85;98681.38;5023184;28;20032;-82
2022/04/19 04:54:02;;;;;;;7.20;5.07;;;;;;;8.24;55.01;98679.75;4999112;28;20393;-82
2022/04/19 04:56:27;;;;;;;9.02;5.97;;;;;;;8.26;54.88;98680.34;5009616;28;20136;-82
2022/04/19 04:58:53;;;;;;;7.68;5.43;;;;;;;8.30;54.62;98681.47;5007276;28;20067;-82
2022/04/19 05:01:18;;;;;;;8.93;5.70;;;;;;;8.36;54.70;98690.38;5008177;28;20041;-82
2022/04/19 05:03:44;;;;;;;6.32;4.85;;;;;;;8.35;55.41;98681.59;5018090;28;20124;-81
2022/04/19 05:06:09;;;;;;;5.82;4.38;;;;;;;8.36;55.08;98677.91;5022939;28;20033;-82
2022/04/19 05:08:34;;;;;;;11.10;4.93;;;;;;;8.40;55.51;98675.56;4989788;28;20048;-82
2022/04/19 05:10:59;;;;;;;6.68;4.57;;;;;;;8.43;55.41;98678.53;5016391;28;20021;-82
2022/04/19 05:13:25;;;;;;;7.93;5.45;;;;;;;8.48;54.95;98675.97;5005923;28;20042;-81
2022/04/19 05:15:50;;;;;;;7.72;5.28;;;;;;;8.54;55.37;98667.03;5018303;28;20075;-82
2022/04/19 05:18:16;;;;;;;6.78;4.63;;;;;;;8.60;55.40;98674.06;5021973;28;20102;-82
2022/04/19 05:20:41;;;;;;;6.03;4.55;;;;;;;8.60;55.00;98663.44;5004747;28;21281;-82
2022/04/19 05:23:07;;;;;;;7.30;4.78;;;;;;;8.71;55.49;98673.22;5026960;28;20046;-82
2022/04/19 05:25:32;;;;;;;14.02;6.78;;;;;;;8.77;55.35;98674.09;5007798;28;20400;-82
2022/04/19 05:27:57;;;;;;;6.15;4.75;;;;;;;8.99;54.71;98682.97;5032671;28;20042;-85
2022/04/19 05:30:23;;;;;;;8.23;5.40;;;;;;;8.97;55.06;98674.44;5006937;28;20026;-84
2022/04/19 05:32:48;;;;;;;6.30;4.93;;;;;;;9.03;54.81;98678.78;5024821;28;20036;-84
2022/04/19 05:35:14;;;;;;;10.73;5.53;;;;;;;9.14;54.32;98674.41;4992365;28;20033;-84
2022/04/19 05:37:40;;;;;;;7.70;5.10;;;;;;;9.02;55.24;98679.84;5018852;28;20044;-84
2022/04/19 05:40:06;;;;;;;7.10;5.45;;;;;;;9.16;54.54;98688.28;5017726;28;20385;-84
2022/04/19 05:42:32;;;;;;;9.48;5.90;;;;;;;9.16;55.51;98690.94;5020028;28;20506;-84
2022/04/19 05:44:57;;;;;;;7.60;5.65;;;;;;;9.17;55.07;98682.72;5026184;28;20041;-84
2022/04/19 05:47:22;;;;;;;9.13;6.55;;;;;;;9.08;55.27;98684.19;5022481;28;20473;-84
2022/04/19 05:49:48;;;;;;;8.02;6.25;;;;;;;9.25;54.98;98689.50;5023006;28;20030;-84
2022/04/19 05:52:13;;;;;;;6.82;5.20;;;;;;;9.30;54.60;98689.56;5006202;28;20033;-84
2022/04/19 05:54:38;;;;;;;10.25;6.10;;;;;;;9.24;55.40;98687.91;5009383;28;20084;-85
2022/04/19 05:57:04;;;;;;;8.05;6.47;;;;;;;9.41;55.08;98686.00;4993771;28;20496;-85
2022/04/19 05:59:29;;;;;;;8.27;6.38;;;;;;;9.38;55.25;98681.97;5020152;28;20550;-85
2022/04/19 06:04:54;;;;;;;6.65;5.50;;;;;;;9.30;55.25;98684.25;5015715;28;20535;-85
2022/04/19 06:07:20;;;;;;;8.10;6.43;;;;;;;9.38;55.34;98686.50;5009489;28;20033;-85
2022/04/19 06:09:45;;;;;;;8.35;6.00;;;;;;;9.42;54.76;98687.59;5023903;28;20027;-86
2022/04/19 06:12:11;;;;;;;9.07;6.47;;;;;;;9.35;55.48;98681.66;5020829;28;20028;-85
2022/04/19 06:14:37;;;;;;;9.48;6.05;;;;;;;9.34;55.26;98691.50;5005823;28;20033;-85
2022/04/19 06:17:02;;;;;;;6.72;6.13;;;;;;;9.28;55.76;98671.19;5009170;28;20374;-85
2022/04/19 06:19:28;;;;;;;9.30;6.30;;;;;;;9.44;55.56;98693.50;5006582;28;20034;-85
2022/04/19 06:21:54;;;;;;;11.23;7.47;;;;;;;9.36;55.89;98669.94;5002289;28;20036;-84
2022/04/19 06:24:19;;;;;;;10.40;6.30;;;;;;;9.45;54.95;98687.13;5031438;28;20702;-85
2022/04/19 06:26:44;;;;;;;9.23;5.93;;;;;;;9.48;55.36;98684.00;4998703;28;20489;-85
2022/04/19 06:29:10;;;;;;;9.85;6.50;;;;;;;9.59;54.88;98701.69;4995778;28;20038;-85
2022/04/19 06:31:35;;;;;;;9.38;6.82;;;;;;;9.70;54.58;98695.47;5036733;28;20080;-85
2022/04/19 06:34:01;;;;;;;9.73;6.95;;;;;;;9.80;55.13;98704.44;5021575;28;20037;-85
2022/04/19 06:36:27;;;;;;;10.02;6.43;;;;;;;9.79;54.81;98708.13;5021082;28;20820;-85
2022/04/19 06:38:52;;;;;;;11.23;6.15;;;;;;;9.60;54.99;98684.69;5005282;28;20029;-84
2022/04/19 06:41:18;;;;;;;11.07;7.00;;;;;;;9.59;55.46;98678.53;5020562;28;20033;-84
2022/04/19 06:43:43;;;;;;;12.05;7.32;;;;;;;9.74;55.01;98697.38;5014653;28;20037;-84
2022/04/19 06:46:08;;;;;;;8.32;6.55;;;;;;;9.60;55.07;98690.81;4999337;28;20042;-84
2022/04/19 06:48:34;;;;;;;7.53;6.10;;;;;;;9.77;55.26;98699.56;5015255;28;20470;-85
2022/04/19 06:51:00;;;;;;;9.05;6.13;;;;;;;9.75;55.82;98704.34;5015929;28;20033;-85
2022/04/19 06:53:29;;;;;;;9.57;5.95;;;;;;;9.91;54.98;98709.88;5025240;28;20087;-85
2022/04/19 06:55:55;;;;;;;6.20;5.43;;;;;;;9.97;55.48;98709.69;5021791;28;20292;-85
2022/04/19 06:58:21;;;;;;;6.68;5.35;;;;;;;9.91;55.61;98704.53;5020552;28;20546;-85
2022/04/19 07:00:46;;;;;;;11.52;6.57;;;;;;;9.97;55.09;98696.38;5009234;28;20026;-85
2022/04/19 07:03:12;;;;;;;7.63;5.63;;;;;;;10.05;55.10;98703.91;5011158;28;20045;-85
2022/04/19 07:05:37;;;;;;;9.30;5.70;;;;;;;9.99;55.25;98699.59;5023912;28;20079;-85
2022/04/19 07:08:05;;;;;;;13.10;6.50;;;;;;;10.00;55.69;98700.41;5020604;28;20117;-85
2022/04/19 07:10:30;;;;;;;10.80;7.03;;;;;;;10.07;55.50;98706.34;5020338;28;20033;-85
2022/04/19 07:12:56;;;;;;;8.52;6.22;;;;;;;10.23;55.32;98697.50;4996859;28;20037;-85
2022/04/19 07:15:21;;;;;;;9.55;6.22;;;;;;;10.18;55.31;98713.44;5016529;28;20048;-85
2022/04/19 07:17:47;;;;;;;10.18;5.97;;;;;;;10.24;55.98;98713.25;5013903;28;20029;-85
2022/04/19 07:28:25;;;;;;;6.85;5.20;;;;;;;10.32;56.14;98698.66;5015516;28;20036;-82
2022/04/19 07:30:51;;;;;;;7.95;5.35;;;;;;;10.37;55.47;98710.22;5013018;28;20029;-82
2022/04/19 07:33:16;;;;;;;7.93;5.53;;;;;;;10.57;55.72;98695.47;5029067;28;20033;-82
2022/04/19 07:35:43;;;;;;;9.10;5.07;;;;;;;10.49;55.31;98692.19;5019966;28;20448;-82
2022/04/19 07:38:08;;;;;;;6.88;4.65;;;;;;;10.52;55.62;98696.22;5030640;28;20048;-82
2022/04/19 07:40:35;;;;;;;9.38;5.40;;;;;;;10.57;55.45;98687.47;5018710;28;20041;-82
2022/04/19 07:43:00;;;;;;;10.20;4.93;;;;;;;10.60;55.23;98671.75;5009700;28;20049;-82
2022/04/19 07:45:25;;;;;;;5.95;4.53;;;;;;;10.70;56.09;98693.22;4996743;28;20076;-82
2022/04/19 07:47:50;;;;;;;5.63;4.45;;;;;;;10.79;55.57;98698.88;5017390;28;20044;-82
2022/04/19 07:50:16;;;;;;;5.00;3.83;;;;;;;10.85;55.33;98689.84;5022973;28;20048;-82
2022/04/19 07:52:41;;;;;;;4.97;3.65;;;;;;;10.81;54.87;98688.75;5017794;28;20083;-81
2022/04/19 07:55:07;;;;;;;4.18;3.78;;;;;;;10.88;55.04;98687.47;5014839;28;20484;-81
2022/04/19 07:57:32;;;;;;;5.15;3.70;;;;;;;10.96;55.04;98697.72;4998798;28;20490;-82
2022/04/19 07:59:58;;;;;;;5.50;4.28;;;;;;;11.03;54.95;98689.50;5010413;28;20048;-81
2022/04/19 08:02:23;;;;;;;6.53;3.90;;;;;;;11.07;54.83;98699.38;4994539;28;20139;-85
2022/04/19 08:04:48;;;;;;;4.47;3.78;;;;;;;11.25;54.80;98690.97;5009165;28;20511;-85
2022/04/19 08:07:14;;;;;;;4.20;3.80;;;;;;;11.18;54.74;98692.28;5007892;28;20486;-85
2022/04/19 08:09:39;;;;;;;4.03;3.60;;;;;;;11.27;54.38;98690.72;5021837;28;20038;-85
2022/04/19 08:12:05;;;;;;;3.95;3.33;;;;;;;11.25;54.97;98682.97;5017962;28;20127;-85
2022/04/19 08:14:31;;;;;;;3.45;3.00;;;;;;;11.43;54.77;98678.28;5005411;28;20452;-85
2022/04/19 08:16:57;;;;;;;7.00;3.13;;;;;;;11.33;54.74;98665.66;5032298;28;20025;-85
2022/04/19 08:19:23;;;;;;;6.18;3.60;;;;;;;11.50;54.35;98679.66;5016396;28;20114;-85
2022/04/19 08:21:48;;;;;;;4.60;3.67;;;;;;;11.56;54.72;98678.63;5026393;28;20026;-85
2022/04/19 08:24:14;;;;;;;6.50;3.53;;;;;;;11.59;54.74;98688.81;5008846;28;20042;-85
2022/04/19 08:26:39;;;;;;;4.50;3.63;;;;;;;11.62;54.01;98682.16;5023343;28;20040;-85
2022/04/19 08:29:06;;;;;;;4.85;3.55;;;;;;;11.75;53.89;98682.50;5017811;28;20033;-85
2022/04/19 08:31:31;;;;;;;4.90;3.78;;;;;;;11.70;54.56;98677.16;4994906;28;20485;-85
2022/04/19 08:33:56;;;;;;;5.47;3.50;;;;;;;11.84;54.62;98688.16;5015616;28;20039;-85
2022/04/19 08:36:21;;;;;;;4.10;3.30;;;;;;;11.79;54.33;98683.63;5004430;28;20056;-85
2022/04/19 08:38:47;;;;;;;5.70;3.78;;;;;;;11.87;54.04;98685.78;5004322;28;20025;-85
2022/04/19 08:41:17;;;;;;;6.40;4.18;;;;;;;11.84;54.68;98683.63;5005118;28;20021;-85
2022/04/19 08:43:44;;;;;;;5.78;3.90;;;;;;;11.94;53.83;98682.88;5020975;28;20051;-85
2022/04/19 08:46:09;;;;;;;4.28;2.85;;;;;;;12.01;54.14;98675.41;5005387;28;20036;-85
2022/04/19 08:48:38;;;;;;;4.53;3.30;;;;;;;12.01;54.18;98686.91;4987567;28;20037;-85
2022/04/19 08:51:08;;;;;;;4.00;3.53;;;;;;;12.17;54.64;98687.75;5022059;28;20030;-85
2022/04/19 08:59:04;;;;;;;3.55;3.00;;;;;;;12.29;54.07;98688.34;5025951;28;20112;-85
2022/04/19 09:01:30;;;;;;;3.00;2.75;;;;;;;12.28;53.86;98681.38;5030489;28;20600;-85
2022/04/19 09:03:55;;;;;;;4.57;3.08;;;;;;;12.37;53.99;98681.66;5008526;28;20057;-85
2022/04/19 09:06:21;;;;;;;3.85;2.95;;;;;;;12.40;54.32;98695.34;5037749;28;20033;-85
2022/04/19 09:09:10;;;;;;;4.40;2.92;;;;;;;12.54;53.32;98691.09;5013334;28;20037;-84
2022/04/19 09:11:36;;;;;;;3.38;2.83;;;;;;;12.54;53.51;98696.44;5020800;28;20029;-85
2022/04/19 09:14:05;;;;;;;5.10;3.22;;;;;;;12.60;53.07;98684.66;5029404;28;20029;-85
2022/04/19 09:16:31;;;;;;;3.47;2.75;;;;;;;12.69;52.79;98692.97;5023527;28;20044;-85
2022/04/19 09:18:56;;;;;;;5.07;3.38;;;;;;;12.68;53.04;98686.03;5025562;28;20025;-85
2022/04/19 09:21:36;;;;;;;3.55;2.85;;;;;;;12.77;52.41;98695.97;5013234;28;20029;-85
2022/04/19 09:24:01;;;;;;;3.17;2.88;;;;;;;12.74;52.58;98691.13;5024778;28;20033;-84
2022/04/19 09:26:45;;;;;;;5.03;2.72;;;;;;;12.91;52.65;98696.22;5031440;28;20036;-84
2022/04/19 09:29:21;;;;;;;3.33;3.03;;;;;;;12.99;51.63;98694.91;5025783;28;20030;-85
2022/04/19 09:31:50;;;;;;;3.53;2.53;;;;;;;13.07;51.61;98686.34;5021574;28;20029;-83
2022/04/19 09:34:37;;;;;;;8.02;2.20;;;;;;;13.10;48.66;98686.63;5017459;28;20038;-84
2022/04/19 09:37:07;;;;;;;2.15;1.92;;;;;;;13.08;48.54;98693.34;5017884;28;20444;-85
2022/04/19 09:39:37;;;;;;;3.22;2.40;;;;;;;13.05;48.43;98691.97;5019884;28;20030;-84
2022/04/19 09:42:08;;;;;;;2.03;1.70;;;;;;;13.25;47.58;98694.66;5004454;28;20065;-83
2022/04/19 09:44:41;;;;;;;2.20;1.60;;;;;;;13.29;47.41;98697.59;5019152;28;20112;-84
2022/04/19 09:47:11;;;;;;;2.95;1.50;;;;;;;13.23;46.69;98670.00;5016115;28;20442;-84
2022/04/19 09:49:47;;;;;;;3.53;1.55;;;;;;;13.27;47.36;98684.47;5033613;28;20038;-85
2022/04/19 09:52:36;;;;;;;2.90;1.75;;;;;;;13.47;46.82;98680.97;5018711;28;20393;-84
2022/04/19 09:55:07;;;;;;;1.95;1.70;;;;;;;13.48;46.52;98690.59;5026918;28;20021;-84
2022/04/19 09:57:36;;;;;;;4.88;1.95;;;;;;;13.50;46.63;98681.22;5013440;28;20600;-85
2022/04/19 10:00:06;;;;;;;1.88;1.38;;;;;;;13.66;46.51;98686.53;5022480;28;20029;-84
2022/04/19 10:08:13;;;;;;;;;;;;;;;13.98;45.93;98677.06;5022907;28;20055;-84
2022/04/19 10:10:42;;;;;;;1.40;1.30;;;;;;;14.05;45.66;98684.81;5025807;28;20000;-85
2022/04/19 10:13:07;;;;;;;1.60;1.50;;;;;;;14.15;45.48;98687.47;5005251;28;20100;-84
2022/04/19 10:15:34;;;;;;;3.40;1.42;;;;;;;14.08;45.47;98666.28;5015756;28;20037;-85
2022/04/19 10:18:00;;;;;;;1.98;1.80;;;;;;;14.22;45.34;98686.06;5024565;28;20030;-85
2022/04/19 10:20:33;;;;;;;1.83;1.67;;;;;;;14.26;45.57;98684.44;5024145;28;20033;-85
2022/04/19 10:23:03;;;;;;;3.55;2.22;;;;;;;14.41;45.14;98682.81;5006480;28;20485;-84
2022/04/19 10:25:44;;;;;;;1.98;1.55;;;;;;;14.42;45.19;98682.50;5016365;28;20045;-84
2022/04/19 10:28:12;;;;;;;2.33;1.33;;;;;;;14.38;45.32;98681.47;5021255;28;20248;-84
2022/04/19 10:30:39;;;;;;;5.70;2.00;;;;;;;14.55;45.06;98681.09;5016526;28;20590;-84
2022/04/19 10:33:41;;;;;;;2.60;1.80;;;;;;;14.64;44.80;98669.50;5014159;28;20034;-84
2022/04/19 10:36:34;;;;;;;1.83;1.70;;;;;;;14.64;45.12;98682.13;5012852;28;20027;-84
2022/04/19 10:39:12;;;;;;;3.22;2.05;;;;;;;14.64;45.40;98666.81;5014277;28;20030;-84
2022/04/19 10:42:03;;;;;;;2.67;2.08;;;;;;;14.75;45.11;98662.16;5015054;28;20357;-84
2022/04/19 10:44:40;;;;;;;1.88;1.67;;;;;;;14.79;44.58;98669.38;5014035;28;20022;-84
2022/04/19 10:47:12;;;;;;;1.63;1.52;;;;;;;14.86;44.94;98674.44;5030317;28;20607;-83
2022/04/19 10:50:06;;;;;;;2.10;1.77;;;;;;;15.00;44.23;98675.44;5015239;28;20033;-84
2022/04/19 10:52:40;;;;;;;2.20;1.88;;;;;;;15.13;44.60;98665.91;5015887;28;20037;-84
2022/04/19 10:55:08;;;;;;;1.15;1.05;;;;;;;15.10;44.87;98664.59;5033437;28;20033;-84
2022/04/19 11:00:31;;;;;;;2.78;1.63;;;;;;;15.33;44.04;98663.81;5014178;28;20041;-84
2022/04/19 11:03:20;;;;;;;1.80;1.70;;;;;;;15.46;43.86;98667.78;5016616;28;20447;-83
2022/04/19 11:05:50;;;;;;;3.80;1.90;;;;;;;15.52;43.21;98658.56;5021694;28;20108;-84
2022/04/19 11:08:24;;;;;;;4.85;2.03;;;;;;;15.63;43.12;98670.84;5031056;28;20056;-83
2022/04/19 11:10:51;;;;;;;1.52;1.42;;;;;;;15.64;42.90;98657.09;5021372;28;20021;-83
2022/04/19 11:13:17;;;;;;;1.75;1.48;;;;;;;15.68;43.00;98660.03;5001456;28;20049;-83
2022/04/19 11:15:42;;;;;;;3.17;1.33;;;;;;;15.79;42.15;98664.22;5035403;28;20081;-84
2022/04/19 11:18:26;;;;;;;3.25;1.90;;;;;;;15.83;41.53;98661.75;5005622;28;20084;-83
2022/04/19 11:20:53;;;;;;;2.05;1.60;;;;;;;15.88;41.25;98659.00;5013276;28;20038;-84
2022/04/19 11:23:21;;;;;;;2.40;2.00;;;;;;;15.92;41.30;98660.84;5019178;28;20079;-84
2022/04/19 11:25:48;;;;;;;4.50;1.88;;;;;;;16.03;41.75;98664.97;5021209;28;20108;-84
2022/04/19 11:28:25;;;;;;;2.58;1.67;;;;;;;16.16;41.59;98658.88;5020931;28;20033;-83
2022/04/19 11:30:50;;;;;;;2.75;1.50;;;;;;;16.23;41.61;98662.03;5016281;28;20033;-84
2022/04/19 11:33:23;;;;;;;3.37;1.97;;;;;;;16.29;41.25;98655.47;5017999;28;20125;-83
2022/04/19 11:36:01;;;;;;;2.42;2.20;;;;;;;16.33;41.11;98650.34;5017782;28;20831;-83
2022/04/19 11:38:31;;;;;;;2.20;1.70;;;;;;;16.38;41.49;98644.88;5020631;28;20489;-85
2022/04/19 11:46:45;;;;;;;3.67;1.65;;;;;;;16.67;40.59;98647.44;5024865;28;20120;-84
2022/04/19 11:49:20;;;;;;;1.48;1.25;;;;;;;16.67;41.52;98647.44;5010686;28;20465;-84
2022/04/19 11:51:50;;;;;;;3.42;1.70;;;;;;;16.63;40.82;98633.75;5014208;28;20638;-85
2022/04/19 11:54:34;;;;;;;1.42;1.30;;;;;;;16.85;39.96;98646.63;5017288;28;20152;-84
2022/04/19 11:57:07;;;;;;;3.97;1.60;;;;;;;16.92;41.12;98644.38;5022611;28;20037;-84
2022/04/19 11:59:35;;;;;;;2.75;1.50;;;;;;;16.97;41.08;98636.19;5020985;28;20034;-85
2022/04/19 12:02:02;;;;;;;4.15;1.75;;;;;;;17.08;40.59;98632.25;5018277;28;20037;-84
2022/04/19 12:04:28;;;;;;;1.95;1.75;;;;;;;17.11;40.47;98642.41;5021301;28;20430;-84
2022/04/19 12:06:57;;;;;;;3.53;1.38;;;;;;;17.14;41.18;98626.47;5020699;28;20096;-84
2022/04/19 12:09:23;;;;;;;1.40;1.23;;;;;;;17.33;40.48;98636.38;5016327;28;20504;-84
2022/04/19 12:11:49;;;;;;;1.98;1.73;;;;;;;17.42;40.17;98640.00;5006212;28;20434;-85
2022/04/19 12:14:24;;;;;;;2.65;1.23;;;;;;;17.53;39.66;98631.44;5023019;28;20397;-84
2022/04/19 12:16:57;;;;;;;1.60;1.50;;;;;;;17.58;40.35;98636.72;5032701;28;20030;-84
2022/04/19 12:19:41;;;;;;;1.83;1.48;;;;;;;17.73;39.82;98628.38;5020698;28;20107;-85